createdAt,value
2022-11-03T09:30:34.000Z,96459
2022-11-03T09:35:06.000Z,96453
2022-11-03T09:40:05.000Z,96449
2022-11-03T09:45:05.000Z,96430
2022-11-03T09:50:06.000Z,96428
2022-11-03T09:55:06.000Z,96426
2022-11-03T10:00:07.000Z,96441
2022-11-03T10:05:02.000Z,96433
2022-11-03T10:10:03.000Z,96430
2022-11-03T10:15:05.000Z,96418
2022-11-03T10:20:06.000Z,96397
2022-11-03T10:25:07.000Z,96381
2022-11-03T10:30:02.000Z,96360
2022-11-03T10:35:02.000Z,96346
2022-11-03T10:40:02.000Z,96343
2022-11-03T10:45:05.000Z,96329
2022-11-03T10:50:05.000Z,96319
2022-11-03T10:55:06.000Z,96322
2022-11-03T11:00:08.000Z,96320
2022-11-03T11:05:05.000Z,96307
2022-11-03T11:10:03.000Z,96288
2022-11-03T11:15:03.000Z,96266
2022-11-03T11:19:51.000Z,96251
2022-11-03T11:25:06.000Z,96232
2022-11-03T11:30:06.000Z,96234
2022-11-03T11:35:04.000Z,96217
2022-11-03T11:40:04.000Z,96198
2022-11-03T11:45:06.000Z,96184
2022-11-03T11:50:06.000Z,96198
2022-11-03T11:55:02.000Z,96190
2022-11-03T12:00:03.000Z,96177
2022-11-03T12:05:04.000Z,96170
2022-11-03T12:10:05.000Z,96154
2022-11-03T12:15:07.000Z,96146
2022-11-03T12:20:02.000Z,96127
2022-11-03T12:25:03.000Z,96114
2022-11-03T12:30:04.000Z,96104
2022-11-03T12:35:06.000Z,96085
2022-11-03T12:40:07.000Z,96077
2022-11-03T12:45:03.000Z,96058
2022-11-03T12:50:04.000Z,96043
2022-11-03T12:55:02.000Z,96026
2022-11-03T13:00:04.000Z,96016
2022-11-03T13:05:05.000Z,96006
2022-11-03T13:10:06.000Z,95985
2022-11-03T13:15:02.000Z,95980
2022-11-03T13:25:07.000Z,95966
2022-11-03T13:30:03.000Z,95959
2022-11-03T13:35:04.000Z,95939
2022-11-03T13:40:05.000Z,95929
2022-11-03T13:45:06.000Z,95926
2022-11-03T13:50:01.000Z,95929
2022-11-03T14:00:04.000Z,95898
2022-11-03T14:05:05.000Z,95885
2022-11-03T14:10:06.000Z,95886
2022-11-03T14:15:02.000Z,95885
2022-11-03T14:20:04.000Z,95890
2022-11-03T14:25:05.000Z,95862
2022-11-03T14:30:05.000Z,95860
2022-11-03T14:35:06.000Z,95886
2022-11-03T14:40:02.000Z,95899
2022-11-03T14:45:02.000Z,95820
2022-11-03T14:50:03.000Z,95844
2022-11-03T14:55:02.000Z,95796
2022-11-03T15:00:02.000Z,95784
2022-11-03T15:05:03.000Z,95770
2022-11-03T15:10:04.000Z,95780
2022-11-03T15:15:06.000Z,95773
2022-11-03T15:20:06.000Z,95754
2022-11-03T15:30:03.000Z,95771
2022-11-03T15:35:06.000Z,95764
2022-11-03T15:40:07.000Z,95763
2022-11-03T15:45:03.000Z,95788
2022-11-03T15:50:06.000Z,95787
2022-11-03T15:55:07.000Z,95799
2022-11-03T16:00:02.000Z,95799
2022-11-03T16:05:03.000Z,95791
2022-11-03T16:10:04.000Z,95790
2022-11-03T16:15:06.000Z,95781
2022-11-03T16:20:02.000Z,95774
2022-11-03T16:25:03.000Z,95752
2022-11-03T16:30:06.000Z,95734
2022-11-03T16:35:03.000Z,95721
2022-11-03T16:40:03.000Z,95694
2022-11-03T16:45:04.000Z,95693
2022-11-03T16:50:05.000Z,95696
2022-11-03T16:55:08.000Z,95679
2022-11-03T17:00:02.000Z,95668
2022-11-03T17:05:03.000Z,95661
2022-11-03T17:10:04.000Z,95666
2022-11-03T17:15:06.000Z,95650
2022-11-03T17:20:03.000Z,95666
2022-11-03T17:25:04.000Z,95657
2022-11-03T17:30:06.000Z,95638
2022-11-03T17:35:03.000Z,95629
2022-11-03T17:40:04.000Z,95620
2022-11-03T17:45:06.000Z,95577
2022-11-03T17:50:07.000Z,95588
2022-11-03T17:55:02.000Z,95568
2022-11-03T18:00:04.000Z,95556
2022-11-03T18:05:06.000Z,95556
2022-11-03T18:10:06.000Z,95577
2022-11-03T18:15:02.000Z,95561
2022-11-03T18:20:04.000Z,95552
2022-11-03T18:25:05.000Z,95575
2022-11-03T18:30:07.000Z,95603
2022-11-03T18:35:02.000Z,95608
2022-11-03T18:40:03.000Z,95602
2022-11-03T18:45:05.000Z,95605
2022-11-03T18:50:06.000Z,95603
2022-11-03T18:55:06.000Z,95605
2022-11-03T19:00:06.000Z,95586
2022-11-03T19:05:06.000Z,95589
2022-11-03T19:10:06.000Z,95580
2022-11-03T19:15:06.000Z,95567
2022-11-03T19:20:02.000Z,95562
2022-11-03T19:25:03.000Z,95560
2022-11-03T19:30:03.000Z,95553
2022-11-03T19:35:05.000Z,95557
2022-11-03T19:40:05.000Z,95564
2022-11-03T19:45:05.000Z,95546
2022-11-03T19:50:06.000Z,95540
2022-11-03T19:55:06.000Z,95553
2022-11-03T20:00:02.000Z,95560
2022-11-03T20:05:03.000Z,95587
2022-11-03T20:10:04.000Z,95620
2022-11-03T20:15:05.000Z,95635
2022-11-03T20:20:02.000Z,95633
2022-11-03T20:25:02.000Z,95649
2022-11-03T20:30:03.000Z,95659
2022-11-03T20:35:03.000Z,95673
2022-11-03T20:40:04.000Z,95698
2022-11-03T20:45:05.000Z,95725
2022-11-03T20:50:06.000Z,95730
2022-11-03T20:55:06.000Z,95731
2022-11-03T21:00:07.000Z,95728
2022-11-03T21:05:08.000Z,95746
2022-11-03T21:10:03.000Z,95773
2022-11-03T21:15:04.000Z,95785
2022-11-03T21:20:06.000Z,95789
2022-11-03T21:25:06.000Z,95791
2022-11-03T21:30:02.000Z,95800
2022-11-03T21:35:04.000Z,95784
2022-11-03T21:40:04.000Z,95779
2022-11-03T21:45:06.000Z,95781
2022-11-03T21:50:06.000Z,95805
2022-11-03T21:55:07.000Z,95818
2022-11-03T22:00:02.000Z,95829
2022-11-03T22:05:03.000Z,95821
2022-11-03T22:10:04.000Z,95826
2022-11-03T22:15:04.000Z,95862
2022-11-03T22:20:06.000Z,95855
2022-11-03T22:25:02.000Z,95864
2022-11-03T22:30:03.000Z,95872
2022-11-03T22:35:04.000Z,95866
2022-11-03T22:40:04.000Z,95872
2022-11-03T22:45:05.000Z,95842
2022-11-03T22:50:06.000Z,95836
2022-11-03T22:55:07.000Z,95829
2022-11-03T23:00:04.000Z,95861
2022-11-03T23:05:06.000Z,95840
2022-11-03T23:10:06.000Z,95839
2022-11-03T23:15:07.000Z,95854
2022-11-03T23:20:03.000Z,95864
2022-11-03T23:25:04.000Z,95866
2022-11-03T23:30:06.000Z,95848
2022-11-03T23:35:07.000Z,95827
2022-11-03T23:40:03.000Z,95849
2022-11-03T23:45:06.000Z,95848
2022-11-03T23:50:06.000Z,95833
2022-11-03T23:55:07.000Z,95807
